createdAt,value
2022-12-28T00:07:59.602Z,101154.81
2022-12-28T00:18:00.906Z,101143.16
2022-12-28T00:28:02.183Z,101116.44
2022-12-28T00:38:03.517Z,101110.56
2022-12-28T00:48:04.772Z,101102.31
2022-12-28T00:58:06.023Z,101075.47
2022-12-28T01:08:07.352Z,101053.94
2022-12-28T01:18:08.609Z,101048.50
2022-12-28T01:28:09.833Z,101038.31
2022-12-28T01:38:11.136Z,101027.31
2022-12-28T01:48:12.383Z,101013.75
2022-12-28T01:58:13.677Z,100996.63
2022-12-28T02:08:14.918Z,100984.00
2022-12-28T02:18:16.165Z,100988.47
2022-12-28T02:28:17.468Z,100960.81
2022-12-28T02:38:18.808Z,100951.59
2022-12-28T02:48:38.892Z,100937.78
2022-12-28T02:58:41.322Z,100910.09
2022-12-28T03:08:43.828Z,100900.63
2022-12-28T03:19:05.589Z,100886.00
2022-12-28T03:29:25.540Z,100883.59
2022-12-28T03:39:26.999Z,100871.66
2022-12-28T03:49:28.282Z,100861.59
2022-12-28T03:59:30.784Z,100847.91
2022-12-28T04:09:32.637Z,100828.91
2022-12-28T04:19:34.109Z,100837.78
2022-12-28T04:29:35.390Z,100829.28
2022-12-28T04:39:55.742Z,100803.56
2022-12-28T04:49:57.998Z,100791.81
2022-12-28T04:59:59.486Z,100792.75
2022-12-28T05:10:00.859Z,100779.94
2022-12-28T05:20:02.252Z,100780.84
2022-12-28T05:30:03.559Z,100769.75
2022-12-28T05:40:04.931Z,100759.44
2022-12-28T05:50:06.214Z,100747.38
2022-12-28T06:00:07.572Z,100754.25
2022-12-28T06:10:08.870Z,100747.25
2022-12-28T06:20:10.311Z,100745.53
2022-12-28T06:30:12.644Z,100739.38
2022-12-28T06:40:13.904Z,100741.00
2022-12-28T06:50:17.616Z,100720.25
2022-12-28T07:00:18.926Z,100713.97
2022-12-28T07:10:20.247Z,100712.34
2022-12-28T07:31:06.825Z,100697.03
2022-12-28T07:41:08.120Z,100697.22
2022-12-28T07:51:10.475Z,100695.75
2022-12-28T08:01:11.865Z,100685.53
2022-12-28T08:11:13.850Z,100680.44
2022-12-28T08:21:15.103Z,100670.03
2022-12-28T08:31:16.439Z,100663.25
2022-12-28T08:41:17.735Z,100668.53
2022-12-28T08:51:19.003Z,100649.63
2022-12-28T09:01:20.379Z,100641.06
2022-12-28T09:11:21.869Z,100650.72
2022-12-28T09:21:23.421Z,100640.38
2022-12-28T09:31:24.792Z,100653.53
2022-12-28T09:41:26.084Z,100658.81
2022-12-28T09:51:27.355Z,100644.97
2022-12-28T10:01:28.652Z,100645.06
2022-12-28T10:11:29.950Z,100638.16
2022-12-28T10:21:32.929Z,100618.19
2022-12-28T10:31:34.652Z,100607.69
2022-12-28T10:41:36.067Z,100592.84
2022-12-28T10:51:37.443Z,100576.31
2022-12-28T11:01:38.919Z,100554.53
2022-12-28T11:11:40.349Z,100541.31
2022-12-28T11:21:41.606Z,100520.19
2022-12-28T11:31:42.931Z,100513.81
2022-12-28T11:41:56.239Z,100497.16
2022-12-28T11:52:04.291Z,100483.34
2022-12-28T12:02:05.630Z,100463.41
2022-12-28T12:12:06.924Z,100448.66
2022-12-28T12:22:08.215Z,100426.69
2022-12-28T12:32:09.534Z,100418.81
2022-12-28T12:42:10.846Z,100404.69
2022-12-28T12:52:12.152Z,100387.28
2022-12-28T13:02:13.510Z,100365.50
2022-12-28T13:12:14.937Z,100344.56
2022-12-28T13:22:16.228Z,100330.75
2022-12-28T13:32:17.524Z,100315.06
2022-12-28T13:42:18.803Z,100303.78
2022-12-28T13:52:20.045Z,100309.88
2022-12-28T14:02:21.413Z,100297.63
2022-12-28T14:12:22.793Z,100285.41
2022-12-28T14:22:24.114Z,100272.19
2022-12-28T14:32:26.210Z,100242.41
2022-12-28T14:42:27.510Z,100245.09
2022-12-28T14:52:29.075Z,100230.38
2022-12-28T15:02:30.478Z,100237.78
2022-12-28T15:12:31.885Z,100232.00
2022-12-28T15:22:33.475Z,100210.34
2022-12-28T15:32:34.960Z,100203.41
2022-12-28T15:42:40.255Z,100195.56
2022-12-28T15:52:43.217Z,100192.16
2022-12-28T16:02:44.909Z,100183.59
2022-12-28T16:12:46.689Z,100185.41
2022-12-28T16:22:51.900Z,100163.75
2022-12-28T16:32:53.761Z,100172.47
2022-12-28T16:42:55.389Z,100170.78
2022-12-28T16:53:00.840Z,100144.72
2022-12-28T17:03:02.327Z,100149.91
2022-12-28T17:13:03.766Z,100137.84
2022-12-28T17:23:05.040Z,100115.00
2022-12-28T17:33:06.373Z,100105.28
2022-12-28T17:43:07.646Z,100091.47
2022-12-28T17:53:08.918Z,100065.44
2022-12-28T18:03:10.236Z,100052.19
2022-12-28T18:13:11.591Z,100030.44
2022-12-28T18:23:12.940Z,100013.09
2022-12-28T18:33:14.216Z,99994.94
2022-12-28T18:43:15.618Z,99989.59
2022-12-28T18:53:16.899Z,99999.19
2022-12-28T19:03:18.329Z,99992.41
2022-12-28T19:13:19.663Z,99976.69
2022-12-28T19:23:20.977Z,99961.03
2022-12-28T19:33:22.313Z,99959.34
2022-12-28T19:43:23.663Z,99952.34
2022-12-28T19:53:24.954Z,99938.22
2022-12-28T20:03:26.280Z,99910.09
2022-12-28T20:13:27.627Z,99895.97
2022-12-28T20:23:28.886Z,99900.09
2022-12-28T20:33:30.209Z,99892.97
2022-12-28T20:43:31.503Z,99883.59
2022-12-28T20:53:32.783Z,99874.69
2022-12-28T21:03:34.078Z,99860.03
2022-12-28T21:13:39.408Z,99850.03
2022-12-28T21:23:45.144Z,99849.00
2022-12-28T21:33:46.503Z,99844.56
2022-12-28T21:43:47.756Z,99841.31
2022-12-28T21:53:49.011Z,99839.25
2022-12-28T22:04:09.252Z,99831.84
2022-12-28T22:14:10.515Z,99834.72
2022-12-28T22:24:11.764Z,99832.66
2022-12-28T22:34:13.075Z,99824.78
2022-12-28T22:44:14.411Z,99837.19
2022-12-28T22:54:15.649Z,99831.16
2022-12-28T23:04:16.920Z,99822.09
2022-12-28T23:14:41.256Z,99817.81
2022-12-28T23:25:03.369Z,99808.94
2022-12-28T23:35:04.755Z,99797.38
2022-12-28T23:45:06.115Z,99775.72
2022-12-28T23:55:07.993Z,99781.03
